Time;durP1;ratioP1;P1;durP2;ratioP2;P2;SDS_P1;SDS_P2;PMS_P1;PMS_P2;Temp;Humidity;BMP_temperature;BMP_pressure;BME280_temperature;BME280_humidity;BME280_pressure;Samples;Min_cycle;Max_cycle;Signal;HPM_P1;HPM_P2
2023/05/05 00:01:35;;;;;;;;;;;15.20;99.90;;;;;;5032525;28;20033;-69
2023/05/05 00:04:01;;;;;;;4.15;2.42;;;15.20;99.90;;;;;;5031911;28;20272;-69
2023/05/05 00:06:27;;;;;;;6.00;2.47;;;15.00;99.90;;;;;;5031990;28;20026;-69
2023/05/05 00:08:54;;;;;;;9.20;2.70;;;14.90;99.90;;;;;;5031818;28;20367;-69
2023/05/05 00:11:20;;;;;;;5.07;2.38;;;14.80;99.90;;;;;;5031315;28;20128;-69
2023/05/05 00:13:46;;;;;;;4.63;2.47;;;14.90;99.90;;;;;;5031509;28;20469;-69
2023/05/05 00:16:13;;;;;;;7.00;2.43;;;15.00;99.90;;;;;;5031597;28;20067;-69
2023/05/05 00:18:39;;;;;;;5.55;2.35;;;15.10;99.90;;;;;;5030162;28;20322;-68
2023/05/05 00:21:05;;;;;;;4.97;2.38;;;15.10;99.90;;;;;;5031319;28;20056;-69
2023/05/05 00:23:31;;;;;;;4.10;2.33;;;15.00;99.90;;;;;;5031488;28;20029;-69
2023/05/05 00:25:58;;;;;;;5.40;2.20;;;15.00;99.90;;;;;;5031625;28;20030;-68
2023/05/05 00:28:24;;;;;;;4.30;2.08;;;15.00;99.90;;;;;;5029728;28;20088;-69
2023/05/05 00:30:50;;;;;;;4.50;2.23;;;15.00;99.90;;;;;;5031681;28;20030;-68
2023/05/05 00:33:16;;;;;;;4.30;2.50;;;14.90;99.90;;;;;;5031421;28;20029;-69
2023/05/05 00:35:42;;;;;;;4.20;2.50;;;14.80;99.90;;;;;;5031230;28;20288;-69
2023/05/05 00:38:09;;;;;;;4.83;2.20;;;14.80;99.90;;;;;;5031657;28;20096;-69
2023/05/05 00:40:36;;;;;;;5.65;2.42;;;14.90;99.90;;;;;;5030905;28;20301;-68
2023/05/05 00:43:02;;;;;;;6.07;2.15;;;14.80;99.90;;;;;;5031086;28;20026;-69
2023/05/05 00:45:29;;;;;;;6.30;2.80;;;14.70;99.90;;;;;;5030636;28;20086;-69
2023/05/05 00:47:57;;;;;;;4.00;2.20;;;14.70;99.90;;;;;;5031039;28;20599;-69
2023/05/05 00:50:25;;;;;;;6.50;2.50;;;14.60;99.90;;;;;;5030900;28;20025;-67
2023/05/05 00:52:54;;;;;;;6.10;2.50;;;14.70;99.90;;;;;;5029783;28;20099;-69
2023/05/05 00:55:21;;;;;;;5.72;2.22;;;14.70;99.90;;;;;;5031041;28;20131;-69
2023/05/05 00:57:48;;;;;;;6.68;2.60;;;14.70;99.90;;;;;;5030787;28;20026;-69
2023/05/05 01:00:15;;;;;;;4.40;1.98;;;14.70;99.90;;;;;;5030912;28;20026;-68
2023/05/05 01:02:41;;;;;;;6.00;2.45;;;14.70;99.90;;;;;;5030626;28;20485;-68
2023/05/05 01:05:09;;;;;;;4.95;2.47;;;14.70;99.90;;;;;;5030767;28;20026;-69
2023/05/05 01:08:11;;;;;;;4.95;2.42;;;14.70;99.90;;;;;;5029461;28;20389;-69
2023/05/05 01:10:45;;;;;;;9.43;4.93;;;14.70;99.90;;;;;;5030669;28;20034;-68
2023/05/05 01:13:44;;;;;;;23.83;11.07;;;14.70;99.90;;;;;;5030097;28;20057;-69
2023/05/05 01:16:32;;;;;;;87.60;35.20;;;14.70;99.90;;;;;;5030887;28;20049;-68
2023/05/05 01:19:16;;;;;;;77.68;33.35;;;14.80;99.90;;;;;;5030784;28;20105;-68
2023/05/05 01:21:56;;;;;;;84.78;37.40;;;14.80;99.90;;;;;;5030634;28;20036;-68
2023/05/05 01:24:44;;;;;;;38.30;17.90;;;14.80;99.90;;;;;;5028967;28;20159;-68
2023/05/05 01:27:36;;;;;;;37.33;15.63;;;14.60;99.90;;;;;;5030078;28;20088;-67
2023/05/05 01:30:17;;;;;;;27.17;12.73;;;14.50;99.90;;;;;;5030587;28;20109;-69
2023/05/05 01:32:49;;;;;;;19.92;8.93;;;14.50;99.90;;;;;;5030498;28;20037;-69
2023/05/05 01:35:27;;;;;;;10.05;4.68;;;14.60;99.90;;;;;;5030535;28;20388;-69
2023/05/05 01:38:08;;;;;;;7.25;3.20;;;14.60;99.90;;;;;;5030356;28;20104;-69
2023/05/05 01:40:40;;;;;;;7.93;3.63;;;14.70;99.90;;;;;;5030371;28;20124;-69
2023/05/05 01:43:09;;;;;;;4.35;2.40;;;14.80;99.90;;;;;;5030223;28;20032;-69
2023/05/05 01:45:38;;;;;;;7.05;2.63;;;14.80;99.90;;;;;;5030123;28;20029;-68
2023/05/05 01:48:07;;;;;;;6.03;1.92;;;14.80;99.90;;;;;;5030022;28;20018;-69
2023/05/05 01:50:35;;;;;;;5.25;2.00;;;14.70;99.90;;;;;;5030395;28;20018;-68
2023/05/05 01:53:03;;;;;;;5.82;2.30;;;14.80;99.90;;;;;;5030230;28;20072;-68
2023/05/05 01:55:31;;;;;;;3.70;2.15;;;14.70;99.90;;;;;;5029926;28;20104;-68
2023/05/05 01:58:00;;;;;;;4.63;2.00;;;14.70;99.90;;;;;;5033715;28;20398;-69
2023/05/05 02:00:26;;;;;;;4.90;2.60;;;14.70;99.90;;;;;;5034037;28;20029;-68
2023/05/05 02:02:58;;;;;;;5.50;2.30;;;14.80;99.90;;;;;;5034119;28;20108;-69
2023/05/05 02:05:25;;;;;;;4.75;2.10;;;14.80;99.90;;;;;;5034076;28;20395;-67
2023/05/05 02:07:57;;;;;;;5.10;2.28;;;14.80;99.90;;;;;;5034384;28;20022;-68
2023/05/05 02:10:23;;;;;;;3.50;2.00;;;14.90;99.90;;;;;;5034001;28;20041;-68
2023/05/05 02:12:51;;;;;;;3.53;2.10;;;14.90;99.90;;;;;;5033520;28;20053;-69
2023/05/05 02:15:20;;;;;;;5.30;2.28;;;14.70;99.90;;;;;;5033915;28;20022;-69
2023/05/05 02:17:47;;;;;;;4.40;2.10;;;14.70;99.90;;;;;;5033878;28;20028;-68
2023/05/05 02:20:15;;;;;;;7.90;2.80;;;14.40;99.90;;;;;;5033767;28;20045;-69
2023/05/05 02:22:41;;;;;;;6.40;2.40;;;14.10;99.90;;;;;;5033806;28;20033;-69
2023/05/05 02:25:08;;;;;;;5.18;2.40;;;14.10;99.90;;;;;;5033663;28;20029;-67
2023/05/05 02:27:35;;;;;;;3.08;1.90;;;14.10;99.90;;;;;;5033799;28;20037;-69
2023/05/05 02:30:08;;;;;;;4.70;2.03;;;14.20;99.90;;;;;;5033876;28;20041;-68
2023/05/05 02:32:39;;;;;;;6.90;2.50;;;14.40;99.90;;;;;;5031978;28;20033;-69
2023/05/05 02:35:18;;;;;;;5.55;2.20;;;14.60;99.90;;;;;;5033876;28;20093;-68
2023/05/05 02:37:50;;;;;;;6.45;2.28;;;14.60;99.90;;;;;;5033679;28;20330;-68
2023/05/05 02:40:22;;;;;;;5.15;2.38;;;14.60;99.90;;;;;;5033188;28;20122;-68
2023/05/05 02:42:52;;;;;;;3.58;1.83;;;14.60;99.90;;;;;;5033128;28;20050;-68
2023/05/05 02:45:21;;;;;;;4.40;2.00;;;14.70;99.90;;;;;;5032940;28;20107;-68
2023/05/05 02:47:47;;;;;;;6.70;2.30;;;14.80;99.90;;;;;;5033123;28;20485;-68
2023/05/05 02:50:14;;;;;;;3.60;2.10;;;14.80;99.90;;;;;;5032945;28;20323;-69
2023/05/05 02:52:41;;;;;;;5.45;2.50;;;14.80;99.90;;;;;;5033189;28;20030;-67
2023/05/05 02:55:07;;;;;;;4.97;1.92;;;14.80;99.90;;;;;;5030768;28;20083;-68
2023/05/05 02:57:52;;;;;;;4.70;2.08;;;14.80;99.90;;;;;;5032805;28;20037;-68
2023/05/05 03:00:24;;;;;;;5.40;2.10;;;14.90;99.90;;;;;;5033107;28;20449;-69
2023/05/05 03:03:05;;;;;;;5.78;2.17;;;14.90;99.90;;;;;;5033246;28;20060;-68
2023/05/05 03:05:50;;;;;;;5.57;2.20;;;14.90;99.90;;;;;;5033820;28;20108;-69
2023/05/05 03:08:27;;;;;;;4.85;2.25;;;15.00;99.90;;;;;;5033360;28;20060;-69
2023/05/05 03:11:05;;;;;;;4.22;2.13;;;14.90;99.90;;;;;;5033795;28;20100;-69
2023/05/05 03:13:34;;;;;;;3.53;1.80;;;14.90;99.90;;;;;;5033841;28;20474;-68
2023/05/05 03:16:05;;;;;;;3.83;2.20;;;15.00;99.90;;;;;;5033583;28;20049;-68
2023/05/05 03:18:36;;;;;;;5.40;2.33;;;14.90;99.90;;;;;;5034092;28;20064;-68
2023/05/05 03:21:07;;;;;;;6.68;2.55;;;14.90;99.90;;;;;;5033412;28;20449;-68
2023/05/05 03:23:34;;;;;;;6.13;2.15;;;14.90;99.90;;;;;;5033640;28;20029;-68
2023/05/05 03:26:01;;;;;;;6.32;2.10;;;14.90;99.90;;;;;;5034073;28;20029;-68
2023/05/05 03:28:27;;;;;;;5.00;2.03;;;15.00;99.90;;;;;;5033311;28;20027;-68
2023/05/05 03:30:53;;;;;;;5.05;2.20;;;15.00;99.90;;;;;;5032374;28;20466;-68
2023/05/05 03:33:19;;;;;;;3.53;2.10;;;15.00;99.90;;;;;;5033627;28;20028;-68
2023/05/05 03:35:45;;;;;;;6.13;2.10;;;15.00;99.90;;;;;;5032956;28;20036;-68
2023/05/05 03:38:11;;;;;;;5.80;2.20;;;15.00;99.90;;;;;;5033413;28;20018;-69
2023/05/05 03:40:38;;;;;;;3.80;2.20;;;14.90;99.90;;;;;;5032995;28;20284;-69
2023/05/05 03:43:04;;;;;;;3.70;2.15;;;15.00;99.90;;;;;;5032804;28;20039;-68
2023/05/05 03:45:30;;;;;;;4.00;1.87;;;15.00;99.90;;;;;;5033335;28;20037;-69
2023/05/05 03:47:56;;;;;;;5.10;2.10;;;15.10;99.90;;;;;;5033018;28;20028;-68
2023/05/05 03:50:23;;;;;;;4.63;1.90;;;15.10;99.90;;;;;;5033904;28;20033;-69
2023/05/05 03:52:49;;;;;;;5.65;2.35;;;15.10;99.90;;;;;;5034018;28;20264;-69
2023/05/05 03:55:15;;;;;;;4.38;1.90;;;15.20;99.90;;;;;;5033858;28;20060;-69
2023/05/05 03:57:41;;;;;;;6.67;2.43;;;15.20;99.90;;;;;;5033439;28;20061;-68
2023/05/05 04:00:10;;;;;;;3.80;2.00;;;15.20;99.90;;;;;;5033525;28;20061;-69
2023/05/05 04:02:36;;;;;;;5.32;2.22;;;15.10;99.90;;;;;;5033825;28;20033;-70
2023/05/05 04:05:03;;;;;;;4.70;2.40;;;15.10;99.90;;;;;;5032281;28;20051;-69
2023/05/05 04:07:29;;;;;;;4.57;2.10;;;15.10;99.90;;;;;;5033365;28;20029;-68
2023/05/05 04:09:55;;;;;;;5.77;2.10;;;15.10;99.90;;;;;;5031864;28;20075;-68
2023/05/05 04:12:21;;;;;;;4.78;1.98;;;15.10;99.90;;;;;;5033289;28;20049;-68
2023/05/05 04:14:48;;;;;;;5.00;2.10;;;15.00;99.90;;;;;;5032993;28;20143;-69
2023/05/05 04:17:14;;;;;;;6.90;2.30;;;15.00;99.90;;;;;;5033567;28;20029;-69
2023/05/05 04:19:40;;;;;;;5.60;2.10;;;15.00;99.90;;;;;;5033115;28;20029;-69
2023/05/05 04:22:06;;;;;;;4.63;2.33;;;15.00;99.90;;;;;;5033629;28;20283;-69
2023/05/05 04:24:32;;;;;;;3.63;2.20;;;15.00;99.90;;;;;;5032690;28;20159;-69
2023/05/05 04:26:58;;;;;;;3.67;2.33;;;14.90;99.90;;;;;;5033556;28;20099;-69
2023/05/05 04:29:24;;;;;;;3.83;2.30;;;14.90;99.90;;;;;;5033452;28;20104;-69
2023/05/05 04:31:51;;;;;;;4.50;2.17;;;14.90;99.90;;;;;;5033641;28;20026;-68
2023/05/05 04:34:17;;;;;;;5.07;2.33;;;14.90;99.90;;;;;;5033742;28;20362;-69
2023/05/05 04:36:43;;;;;;;5.90;2.47;;;15.00;99.90;;;;;;5033380;28;20107;-68
2023/05/05 04:39:09;;;;;;;7.80;2.30;;;14.90;99.90;;;;;;5033307;28;20025;-69
2023/05/05 04:41:35;;;;;;;5.20;1.80;;;15.00;99.90;;;;;;5033619;28;20378;-69
2023/05/05 04:44:01;;;;;;;4.78;2.00;;;15.10;99.90;;;;;;5031442;28;20030;-69
2023/05/05 04:46:27;;;;;;;5.05;1.88;;;15.10;99.90;;;;;;5031222;28;20159;-69
2023/05/05 04:48:53;;;;;;;5.13;2.33;;;15.20;99.90;;;;;;5033180;28;20100;-68
2023/05/05 04:51:19;;;;;;;3.90;2.10;;;15.30;99.90;;;;;;5033002;28;20499;-67
2023/05/05 04:53:46;;;;;;;3.73;2.10;;;15.30;99.90;;;;;;5032835;28;20029;-68
2023/05/05 04:56:12;;;;;;;5.30;2.07;;;15.30;99.90;;;;;;5033069;28;20752;-67
2023/05/05 04:58:38;;;;;;;4.07;1.90;;;15.40;99.90;;;;;;5032420;28;20049;-68
2023/05/05 05:01:04;;;;;;;4.27;2.00;;;15.40;99.90;;;;;;5032486;28;20033;-69
2023/05/05 05:03:30;;;;;;;4.47;2.00;;;15.40;99.90;;;;;;5032115;28;20201;-69
2023/05/05 05:05:56;;;;;;;4.75;2.30;;;15.50;99.90;;;;;;5030691;28;20030;-68
2023/05/05 05:08:22;;;;;;;4.13;2.37;;;15.50;99.90;;;;;;5031864;28;20083;-69
2023/05/05 05:10:48;;;;;;;4.45;2.10;;;15.70;99.90;;;;;;5032255;28;20017;-68
2023/05/05 05:13:15;;;;;;;3.97;1.83;;;17.10;99.90;;;;;;5030179;28;20049;-68
2023/05/05 12:20:31;;;;;;;6.28;2.10;;;25.10;99.90;;;;;;5100623;27;20114;-67
2023/05/05 12:23:01;;;;;;;5.05;1.70;;;25.30;99.90;;;;;;5096084;28;20120;-68
2023/05/05 12:25:35;;;;;;;4.32;1.50;;;25.40;99.90;;;;;;5122815;28;20405;-69
2023/05/05 12:28:01;;;;;;;7.38;1.70;;;25.10;99.90;;;;;;5088188;28;20028;-69
2023/05/05 12:30:27;;;;;;;3.80;1.70;;;25.10;99.90;;;;;;5089465;28;20465;-69
2023/05/05 12:33:07;;;;;;;6.57;1.88;;;25.10;99.90;;;;;;5089505;28;20033;-69
2023/05/05 12:35:33;;;;;;;6.35;1.88;;;25.10;99.90;;;;;;5089529;28;20032;-69
2023/05/05 12:37:59;;;;;;;7.10;1.52;;;25.10;99.90;;;;;;5090033;28;20044;-69
2023/05/05 12:40:48;;;;;;;7.53;1.73;;;25.30;99.90;;;;;;5089405;28;20140;-70
2023/05/05 12:43:31;;;;;;;3.25;1.60;;;25.30;99.90;;;;;;5089667;28;20107;-70
2023/05/05 12:46:08;;;;;;;7.00;1.60;;;25.30;99.90;;;;;;5089189;28;20040;-70
2023/05/05 12:48:36;;;;;;;2.97;1.50;;;25.10;99.90;;;;;;5089414;28;20100;-70
2023/05/05 12:51:14;;;;;;;6.70;1.63;;;24.80;99.90;;;;;;5088611;28;20358;-70
2023/05/05 12:53:41;;;;;;;4.05;1.75;;;24.80;99.90;;;;;;5088871;28;20028;-69
2023/05/05 12:56:25;;;;;;;;;;;24.90;99.90;;;;;;5089302;28;20024;-70
2023/05/05 12:58:54;;;;;;;4.15;1.63;;;24.60;99.90;;;;;;5088574;28;19999;-70
2023/05/05 13:01:20;;;;;;;5.93;1.35;;;24.60;99.90;;;;;;5088602;28;20123;-69
2023/05/05 13:03:46;;;;;;;4.72;1.70;;;24.60;99.90;;;;;;5088704;28;20074;-71
2023/05/05 13:06:23;;;;;;;4.47;2.00;;;24.70;99.90;;;;;;5088708;28;20032;-69
2023/05/05 13:08:50;;;;;;;4.68;2.10;;;24.60;99.90;;;;;;5089125;28;20016;-70
2023/05/05 13:11:17;;;;;;;22.02;2.05;;;24.50;99.90;;;;;;5088794;28;20036;-69
2023/05/05 13:13:43;;;;;;;5.65;2.33;;;24.70;99.90;;;;;;5088976;28;20036;-69
2023/05/05 13:16:09;;;;;;;7.43;1.98;;;24.50;99.90;;;;;;5087430;28;20146;-71
2023/05/05 13:18:46;;;;;;;16.10;5.60;;;24.50;99.90;;;;;;5088479;28;20037;-70
2023/05/05 13:21:12;;;;;;;10.48;3.25;;;24.70;99.90;;;;;;5088566;28;20480;-71
2023/05/05 13:23:43;;;;;;;12.32;3.92;;;24.60;99.90;;;;;;5088723;28;20032;-71
2023/05/05 13:26:09;;;;;;;8.85;3.10;;;24.40;99.90;;;;;;5088893;28;20073;-69
2023/05/05 13:28:36;;;;;;;3.30;1.27;;;24.80;99.90;;;;;;5087217;28;20025;-70
2023/05/05 13:31:02;;;;;;;5.43;1.45;;;24.80;99.90;;;;;;5078609;28;20033;-68
2023/05/05 13:33:28;;;;;;;6.63;2.58;;;24.90;99.90;;;;;;5075193;28;20033;-70
2023/05/05 13:35:54;;;;;;;4.93;2.25;;;24.70;99.90;;;;;;5074868;28;20107;-70
2023/05/05 13:38:20;;;;;;;;;;;24.50;99.90;;;;;;5075016;28;20189;-70
2023/05/05 13:40:46;;;;;;;10.48;2.40;;;24.30;99.90;;;;;;5075226;28;20420;-70
2023/05/05 13:43:12;;;;;;;5.57;2.47;;;24.30;99.90;;;;;;5074559;28;20096;-69
2023/05/05 13:45:38;;;;;;;4.53;2.40;;;24.20;99.90;;;;;;5074216;28;20025;-71
2023/05/05 13:48:04;;;;;;;5.07;2.58;;;24.50;99.90;;;;;;5073160;28;20089;-72
2023/05/05 13:50:30;;;;;;;7.63;4.20;;;24.50;99.90;;;;;;5074424;28;20033;-71
2023/05/05 13:52:59;;;;;;;8.75;4.15;;;24.60;99.90;;;;;;5073532;28;20031;-71
2023/05/05 13:55:27;;;;;;;5.82;2.83;;;24.50;99.90;;;;;;5074211;28;20030;-70
2023/05/05 13:57:53;;;;;;;7.55;2.65;;;24.60;99.90;;;;;;5106201;28;20484;-70
2023/05/05 14:00:20;;;;;;;6.68;3.75;;;24.80;99.90;;;;;;5074529;28;20460;-71
2023/05/05 14:02:48;;;;;;;15.52;5.72;;;24.80;99.90;;;;;;5073989;28;20120;-69
2023/05/05 14:05:15;;;;;;;15.60;8.80;;;24.90;99.90;;;;;;5073992;28;20060;-70
2023/05/05 14:07:41;;;;;;;7.28;3.55;;;25.10;99.90;;;;;;5073832;28;20346;-71
2023/05/05 14:10:10;;;;;;;13.32;9.50;;;25.10;99.90;;;;;;5073631;28;20062;-69
2023/05/05 14:12:36;;;;;;;7.18;3.40;;;25.10;99.90;;;;;;5072332;28;20049;-71
2023/05/05 14:15:03;;;;;;;4.90;2.83;;;24.60;99.90;;;;;;5074220;28;20063;-70
2023/05/05 14:17:29;;;;;;;11.27;7.10;;;24.00;99.90;;;;;;5074132;28;20028;-70
2023/05/05 14:19:55;;;;;;;7.95;4.85;;;23.90;99.90;;;;;;5073235;28;20396;-70
2023/05/05 14:22:21;;;;;;;11.88;6.15;;;23.90;99.90;;;;;;5106070;28;20557;-70
2023/05/05 14:24:47;;;;;;;27.13;16.65;;;24.00;99.90;;;;;;5073459;28;20048;-69
2023/05/05 14:27:14;;;;;;;132.88;79.18;;;24.30;99.90;;;;;;5073347;28;20311;-71
2023/05/05 14:29:40;;;;;;;40.42;22.50;;;24.30;99.90;;;;;;5073468;28;20017;-71
2023/05/05 14:32:06;;;;;;;48.17;22.88;;;24.10;99.90;;;;;;5073500;28;20035;-69
2023/05/05 14:34:32;;;;;;;24.65;13.18;;;24.10;99.90;;;;;;5073402;28;20021;-71
2023/05/05 14:36:58;;;;;;;25.75;14.05;;;24.30;99.90;;;;;;5073454;28;20025;-70
2023/05/05 14:39:25;;;;;;;24.25;12.88;;;24.60;99.90;;;;;;5073148;28;20028;-69
2023/05/05 14:41:51;;;;;;;;;;;24.90;99.90;;;;;;5073140;28;20184;-69
2023/05/05 14:44:17;;;;;;;18.73;9.00;;;24.80;99.90;;;;;;5073287;28;19991;-69
2023/05/05 14:46:43;;;;;;;8.88;4.82;;;24.80;99.90;;;;;;5073517;28;20024;-70
2023/05/05 14:49:09;;;;;;;16.17;3.67;;;24.80;99.90;;;;;;5072772;28;20020;-71
2023/05/05 14:51:35;;;;;;;6.93;3.17;;;24.40;99.90;;;;;;5072346;28;20024;-70
2023/05/05 14:54:02;;;;;;;11.32;4.40;;;24.00;99.90;;;;;;5072873;28;20039;-68
2023/05/05 14:56:28;;;;;;;6.32;3.25;;;24.20;99.90;;;;;;5072982;28;20028;-68
2023/05/05 14:58:54;;;;;;;8.43;2.72;;;24.40;99.90;;;;;;5072298;28;20037;-70
2023/05/05 15:01:21;;;;;;;8.65;4.28;;;24.40;99.90;;;;;;5072716;28;20062;-70
2023/05/05 15:03:47;;;;;;;15.68;10.00;;;24.50;99.90;;;;;;5072332;28;20426;-71
2023/05/05 15:06:13;;;;;;;12.10;5.38;;;24.20;99.90;;;;;;5072344;28;20025;-68
2023/05/05 15:08:39;;;;;;;16.65;5.93;;;24.10;99.90;;;;;;5070374;28;20404;-69
2023/05/05 15:11:05;;;;;;;26.27;11.75;;;24.10;99.90;;;;;;5071779;28;20424;-69
2023/05/05 15:13:31;;;;;;;;;;;24.30;99.90;;;;;;5070774;28;20036;-69
2023/05/05 15:15:57;;;;;;;9.88;4.00;;;24.30;99.90;;;;;;5071860;28;19905;-70
2023/05/05 15:18:23;;;;;;;10.02;4.47;;;24.10;99.90;;;;;;5071923;28;20121;-70
2023/05/05 15:20:49;;;;;;;9.80;4.80;;;24.10;99.90;;;;;;5071485;28;20471;-71
2023/05/05 15:23:15;;;;;;;6.95;3.92;;;24.10;99.90;;;;;;5072151;28;20086;-70
2023/05/05 15:25:42;;;;;;;10.57;3.35;;;24.30;99.90;;;;;;5075946;28;20095;-69
2023/05/05 15:28:08;;;;;;;5.10;2.47;;;24.40;99.90;;;;;;5072706;28;20029;-70
2023/05/05 15:30:34;;;;;;;5.25;3.30;;;24.50;99.90;;;;;;5080722;28;20026;-71
2023/05/05 15:33:00;;;;;;;8.05;4.10;;;24.20;99.90;;;;;;5092202;28;20020;-70
2023/05/05 15:35:26;;;;;;;11.13;5.45;;;24.30;99.90;;;;;;5092032;28;20325;-70
2023/05/05 15:37:53;;;;;;;6.78;4.25;;;24.40;99.90;;;;;;5090474;28;20028;-70
2023/05/05 15:40:19;;;;;;;;;;;24.20;99.90;;;;;;5092512;28;20027;-69
2023/05/05 15:42:46;;;;;;;8.85;3.25;;;24.00;99.90;;;;;;5091986;28;19908;-72
2023/05/05 15:45:13;;;;;;;8.38;3.50;;;23.70;99.90;;;;;;5091618;28;20032;-70
2023/05/05 15:47:40;;;;;;;8.02;3.13;;;23.90;99.90;;;;;;5091509;28;20417;-69
2023/05/05 15:50:06;;;;;;;7.28;3.50;;;24.20;99.90;;;;;;5082035;28;20455;-70
2023/05/05 15:52:33;;;;;;;10.65;3.85;;;24.30;99.90;;;;;;5070738;28;20028;-69
2023/05/05 15:54:59;;;;;;;;;;;24.10;99.90;;;;;;5071234;28;20377;-69
2023/05/05 15:57:25;;;;;;;11.68;3.40;;;24.30;99.90;;;;;;5070766;28;20224;-68
2023/05/05 15:59:53;;;;;;;8.98;3.70;;;24.30;99.90;;;;;;5070644;28;20045;-69
2023/05/05 16:02:20;;;;;;;8.65;3.50;;;24.10;99.90;;;;;;5070913;28;20104;-71
2023/05/05 16:04:46;;;;;;;6.88;3.47;;;24.10;99.90;;;;;;5068979;28;20064;-71
2023/05/05 16:07:12;;;;;;;12.18;3.70;;;24.10;99.90;;;;;;5070533;28;20020;-71
2023/05/05 16:09:38;;;;;;;8.50;4.30;;;23.70;99.90;;;;;;5068986;28;20028;-70
2023/05/05 16:12:05;;;;;;;9.10;3.50;;;23.50;99.90;;;;;;5070100;28;20171;-71
2023/05/05 16:14:31;;;;;;;11.35;5.40;;;23.40;99.90;;;;;;5070493;28;20025;-69
2023/05/05 16:16:58;;;;;;;13.60;4.53;;;23.00;99.90;;;;;;5070526;28;20492;-71
2023/05/05 16:19:26;;;;;;;8.65;3.50;;;23.20;99.90;;;;;;5070374;28;20045;-72
2023/05/05 16:21:55;;;;;;;12.57;4.20;;;23.00;99.90;;;;;;5070986;28;20027;-70
2023/05/05 16:24:22;;;;;;;6.70;3.15;;;22.80;99.90;;;;;;5071247;28;20051;-70
2023/05/05 16:26:48;;;;;;;6.75;3.38;;;22.90;99.90;;;;;;5071327;28;20368;-70
2023/05/05 16:29:14;;;;;;;8.00;3.05;;;22.70;99.90;;;;;;5069933;28;20429;-69
2023/05/05 16:31:40;;;;;;;10.82;3.78;;;22.80;99.90;;;;;;5071491;28;20021;-75
2023/05/05 16:34:07;;;;;;;12.88;3.67;;;22.60;99.90;;;;;;5071645;28;20029;-70
2023/05/05 16:36:33;;;;;;;11.55;3.65;;;22.30;99.90;;;;;;5071110;28;20031;-71
2023/05/05 16:38:59;;;;;;;9.02;3.97;;;22.30;99.90;;;;;;5071260;28;20039;-70
2023/05/05 16:41:25;;;;;;;8.63;3.33;;;22.20;99.90;;;;;;5071501;28;20021;-69
2023/05/05 16:43:52;;;;;;;12.57;4.05;;;22.10;99.90;;;;;;5071279;28;20031;-71
2023/05/05 16:46:18;;;;;;;6.53;3.72;;;22.10;99.90;;;;;;5071173;28;20070;-68
2023/05/05 16:48:44;;;;;;;12.82;4.10;;;21.90;99.90;;;;;;5070773;28;20029;-70
2023/05/05 16:51:11;;;;;;;11.20;4.53;;;21.80;99.90;;;;;;5069184;28;20048;-70
2023/05/05 16:53:37;;;;;;;15.23;4.07;;;21.50;99.90;;;;;;5071341;28;20032;-72
2023/05/05 16:56:03;;;;;;;14.48;4.50;;;21.30;99.90;;;;;;5070620;28;20487;-71
2023/05/05 16:58:29;;;;;;;13.50;3.90;;;21.30;99.90;;;;;;5070834;28;20051;-71
2023/05/05 17:00:55;;;;;;;10.32;4.05;;;21.10;99.90;;;;;;5070548;28;20475;-71
2023/05/05 17:03:21;;;;;;;11.95;4.22;;;21.00;99.90;;;;;;5071315;28;20025;-72
2023/05/05 17:05:48;;;;;;;8.27;3.70;;;21.00;99.90;;;;;;5104803;28;20380;-71
2023/05/05 17:08:14;;;;;;;8.25;3.90;;;21.00;99.90;;;;;;5074533;28;20103;-71
2023/05/05 17:10:41;;;;;;;8.57;3.67;;;21.00;99.90;;;;;;5074099;28;20448;-71
2023/05/05 17:13:09;;;;;;;5.88;3.53;;;20.90;99.90;;;;;;5074157;28;20526;-71
2023/05/05 17:15:36;;;;;;;;;;;20.90;99.90;;;;;;5075191;28;20032;-71
2023/05/05 17:18:03;;;;;;;8.57;4.10;;;20.70;99.90;;;;;;5073980;28;19976;-70
2023/05/05 17:20:30;;;;;;;9.68;4.55;;;20.70;99.90;;;;;;5074123;28;20114;-70
2023/05/05 17:22:56;;;;;;;;;;;20.70;99.90;;;;;;5074674;28;20031;-70
2023/05/05 17:25:24;;;;;;;8.30;4.13;;;20.60;99.90;;;;;;5074222;28;19904;-71
2023/05/05 17:27:51;;;;;;;8.20;4.28;;;20.60;99.90;;;;;;5074026;28;20467;-69
2023/05/05 17:30:17;;;;;;;9.05;4.57;;;20.70;99.90;;;;;;5074174;28;20025;-70
2023/05/05 17:32:43;;;;;;;16.88;4.40;;;20.70;99.90;;;;;;5073987;28;20020;-71
2023/05/05 17:35:09;;;;;;;10.02;3.47;;;20.80;99.90;;;;;;5073881;28;20112;-70
2023/05/05 17:37:36;;;;;;;12.27;3.90;;;20.50;99.90;;;;;;5073726;28;20056;-70
2023/05/05 17:40:02;;;;;;;;;;;20.60;99.90;;;;;;5072819;28;20392;-70
2023/05/05 17:42:31;;;;;;;;;;;20.30;99.90;;;;;;5075111;28;19999;-72
2023/05/05 17:45:01;;;;;;;10.68;4.50;;;20.10;99.90;;;;;;5073881;28;19908;-72
2023/05/05 17:47:30;;;;;;;14.50;4.43;;;20.00;99.90;;;;;;5073854;28;20048;-69
2023/05/05 17:49:56;;;;;;;12.50;4.60;;;19.90;99.90;;;;;;5074016;28;20028;-72
2023/05/05 17:52:23;;;;;;;12.40;5.03;;;19.70;99.90;;;;;;5074115;28;20028;-72
2023/05/05 17:54:50;;;;;;;10.18;4.20;;;19.70;99.90;;;;;;5106550;28;20369;-71
2023/05/05 17:57:19;;;;;;;11.80;5.32;;;19.70;99.90;;;;;;5073553;28;20032;-71
2023/05/05 17:59:48;;;;;;;9.02;5.10;;;19.80;99.90;;;;;;5073611;28;20393;-70
2023/05/05 18:02:15;;;;;;;11.70;5.45;;;19.80;99.90;;;;;;5066201;28;20373;-71
2023/05/05 18:04:42;;;;;;;9.27;3.85;;;19.90;99.90;;;;;;5063181;28;20017;-72
2023/05/05 18:07:09;;;;;;;7.18;3.95;;;20.00;99.90;;;;;;5053301;28;20330;-71
2023/05/05 18:09:36;;;;;;;8.73;4.88;;;20.00;99.90;;;;;;5057475;28;20120;-72
2023/05/05 18:12:03;;;;;;;9.23;4.75;;;20.00;99.90;;;;;;5083741;28;20051;-72
2023/05/05 18:14:29;;;;;;;7.57;4.25;;;19.90;99.90;;;;;;5089977;28;20028;-73
2023/05/05 18:16:55;;;;;;;7.05;4.03;;;19.80;99.90;;;;;;5093413;28;20020;-72
2023/05/05 18:19:22;;;;;;;8.48;4.43;;;19.80;99.90;;;;;;5090077;28;20055;-72
2023/05/05 18:21:51;;;;;;;12.13;4.30;;;19.80;99.90;;;;;;5083138;28;20024;-73
2023/05/05 18:24:18;;;;;;;12.15;4.35;;;19.80;99.90;;;;;;5093117;28;20110;-71
2023/05/05 18:26:48;;;;;;;8.30;4.30;;;19.80;99.90;;;;;;5076755;28;20448;-73
2023/05/05 18:29:14;;;;;;;13.43;4.18;;;19.80;99.90;;;;;;5073124;28;20446;-73
2023/05/05 18:31:42;;;;;;;;;;;19.70;99.90;;;;;;5083498;28;20022;-71
2023/05/05 18:34:08;;;;;;;7.40;4.05;;;19.70;99.90;;;;;;5093091;28;19930;-70
2023/05/05 18:36:35;;;;;;;13.85;4.32;;;19.70;99.90;;;;;;5079518;28;20095;-70
2023/05/05 18:39:01;;;;;;;6.43;3.72;;;19.80;99.90;;;;;;5072975;28;20119;-71
2023/05/05 18:41:27;;;;;;;7.53;3.47;;;19.70;99.90;;;;;;5073435;28;20039;-72
2023/05/05 18:43:53;;;;;;;5.97;3.80;;;19.60;99.90;;;;;;5073456;28;20024;-73
2023/05/05 18:46:19;;;;;;;5.88;3.90;;;19.50;99.90;;;;;;5073261;28;20027;-71
2023/05/05 18:48:45;;;;;;;7.15;3.67;;;19.50;99.90;;;;;;5073364;28;20024;-72
2023/05/05 18:51:11;;;;;;;6.82;4.07;;;19.50;99.90;;;;;;5072332;28;20017;-71
2023/05/05 18:53:37;;;;;;;8.00;4.22;;;19.40;99.90;;;;;;5072267;28;20031;-72
2023/05/05 18:56:03;;;;;;;5.07;3.50;;;19.40;99.90;;;;;;5074977;28;20077;-70
2023/05/05 18:58:29;;;;;;;7.13;3.13;;;19.30;99.90;;;;;;5092262;28;20023;-70
2023/05/05 19:00:56;;;;;;;5.38;3.60;;;19.30;99.90;;;;;;5090855;28;20032;-69
2023/05/05 19:03:22;;;;;;;8.50;3.75;;;19.30;99.90;;;;;;5090618;28;20027;-69
2023/05/05 19:05:48;;;;;;;5.25;3.58;;;19.30;99.90;;;;;;5092122;28;20365;-70
2023/05/05 19:08:15;;;;;;;7.97;3.50;;;19.30;99.90;;;;;;5092215;28;20471;-72
2023/05/05 19:10:41;;;;;;;;;;;19.20;99.90;;;;;;5083589;28;20044;-71
2023/05/05 19:13:08;;;;;;;7.75;3.95;;;19.10;99.90;;;;;;5071436;28;19904;-69
2023/05/05 19:15:34;;;;;;;8.80;3.65;;;19.10;99.90;;;;;;5071611;28;20025;-71
2023/05/05 19:18:00;;;;;;;4.60;2.97;;;19.00;99.90;;;;;;5071164;28;20040;-71
2023/05/05 19:20:29;;;;;;;10.23;3.70;;;19.00;99.90;;;;;;5070949;28;20380;-70
2023/05/05 19:23:01;;;;;;;5.43;3.50;;;19.00;99.90;;;;;;5069632;28;20047;-71
2023/05/05 19:25:28;;;;;;;6.32;3.85;;;18.90;99.90;;;;;;5073376;28;20044;-71
2023/05/05 19:27:54;;;;;;;5.75;3.30;;;18.90;99.90;;;;;;5082080;28;20471;-69
2023/05/05 19:30:21;;;;;;;5.10;3.28;;;18.90;99.90;;;;;;5091828;28;20027;-71
2023/05/05 19:32:47;;;;;;;5.85;3.53;;;18.90;99.90;;;;;;5091534;28;20028;-69
2023/05/05 19:35:13;;;;;;;6.18;3.47;;;18.90;99.90;;;;;;5091112;28;20162;-70
2023/05/05 19:37:39;;;;;;;6.57;3.35;;;18.90;99.90;;;;;;5089472;28;20027;-71
2023/05/05 19:40:06;;;;;;;4.25;3.35;;;18.90;99.90;;;;;;5090923;28;20044;-69
2023/05/05 19:42:32;;;;;;;6.32;3.10;;;18.80;99.90;;;;;;5091107;28;20317;-71
2023/05/05 19:44:59;;;;;;;5.18;3.33;;;18.80;99.90;;;;;;5091015;28;20040;-71
2023/05/05 19:47:25;;;;;;;;;;;18.70;99.90;;;;;;5091683;28;20024;-71
2023/05/05 19:49:51;;;;;;;5.65;3.78;;;18.70;99.90;;;;;;5083760;28;19955;-71
2023/05/05 19:52:17;;;;;;;5.32;3.45;;;18.80;99.90;;;;;;5070825;28;20032;-71
2023/05/05 19:54:43;;;;;;;7.13;3.47;;;18.70;99.90;;;;;;5070784;28;20081;-71
2023/05/05 19:57:09;;;;;;;5.75;3.45;;;18.70;99.90;;;;;;5070513;28;20021;-72